Fecha, hora, temperatura, viento dirección y velocidad, humedad y presión.

  • 19-03-2019 23:00:00 | 9.40°C | Calma |0.00 km/h | 92.00% | 1028.00 hPa
  • 19-03-2019 22:00:00 | 9.50°C | Oeste |4.00 km/h | 92.00% | 1027.40 hPa
  • 19-03-2019 21:00:00 | 9.60°C | Oeste |12.00 km/h | 91.00% | 1026.90 hPa
  • 19-03-2019 20:00:00 | 9.90°C | Oeste |12.00 km/h | 91.00% | 1026.70 hPa
  • 19-03-2019 19:00:00 | 9.90°C | Oeste |13.00 km/h | 90.00% | 1026.50 hPa
  • 19-03-2019 18:00:00 | 10.30°C | Noroeste |14.00 km/h | 90.00% | 1025.80 hPa
  • 19-03-2019 17:00:00 | 9.60°C | Norte |7.00 km/h | 91.00% | 1026.00 hPa
  • 19-03-2019 16:00:00 | 11.00°C | Oeste |14.00 km/h | 89.00% | 1025.80 hPa
  • 19-03-2019 15:00:00 | 10.20°C | Oeste |14.00 km/h | 91.00% | 1025.80 hPa
  • 19-03-2019 14:00:00 | 10.90°C | Oeste |17.00 km/h | 91.00% | 1025.80 hPa
  • 19-03-2019 13:00:00 | 11.10°C | Oeste |17.00 km/h | 92.00% | 1026.00 hPa
  • 19-03-2019 12:00:00 | 9.70°C | Oeste |16.00 km/h | 93.00% | 1026.00 hPa
  • 19-03-2019 11:00:00 | 9.40°C | Oeste |18.00 km/h | 92.00% | 1025.70 hPa
  • 19-03-2019 10:00:00 | 9.10°C | Oeste |19.00 km/h | 92.00% | 1025.50 hPa
  • 19-03-2019 09:00:00 | 9.00°C | Oeste |18.00 km/h | 92.00% | 1025.00 hPa
  • 19-03-2019 08:00:00 | 8.40°C | Oeste |11.00 km/h | 91.00% | 1024.50 hPa
  • 19-03-2019 07:00:00 | 8.20°C | Oeste |12.00 km/h | 91.00% | 1024.40 hPa
  • 19-03-2019 06:00:00 | 8.30°C | Oeste |6.00 km/h | 90.00% | 1024.30 hPa
  • 19-03-2019 05:00:00 | 8.60°C | Oeste |19.00 km/h | 91.00% | 1024.20 hPa
  • 19-03-2019 04:00:00 | 8.20°C | Oeste |10.00 km/h | 90.00% | 1024.40 hPa
  • 19-03-2019 03:00:00 | 8.30°C | Oeste |10.00 km/h | 88.00% | 1024.80 hPa
  • 19-03-2019 02:00:00 | 8.20°C | Oeste |9.00 km/h | 90.00% | 1025.10 hPa
  • 19-03-2019 01:00:00 | 8.60°C | Oeste |19.00 km/h | 87.00% | 1025.10 hPa
  • 19-03-2019 00:00:00 | 9.80°C | Oeste |14.00 km/h | 76.00% | 1025.40 hPa
    • diseño web asturias Información sobre el estado de las mareas, altura de la marejada, temperatura del agua y otros datos de Gijón en Asturias.

      Surf Gijón